Time;durP1;ratioP1;P1;durP2;ratioP2;P2;SDS_P1;SDS_P2;PMS_P1;PMS_P2;Temp;Humidity;BMP_temperature;BMP_pressure;BME280_temperature;BME280_humidity;BME280_pressure;Samples;Min_cycle;Max_cycle;Signal;HPM_P1;HPM_P2
2021/10/29 00:01:25;;;;;;;26.00;18.90;;;;;;;14.83;62.48;101597.09;1762399;79;21282;-69
2021/10/29 00:03:51;;;;;;;28.37;21.63;;;;;;;14.81;62.58;101590.64;1756299;80;21309;-69
2021/10/29 00:06:18;;;;;;;25.23;20.50;;;;;;;14.77;62.61;101595.73;1763184;79;21875;-68
2021/10/29 00:08:44;;;;;;;28.80;21.80;;;;;;;14.77;62.66;101601.61;1792304;78;21373;-70
2021/10/29 00:11:11;;;;;;;26.83;21.03;;;;;;;14.76;62.69;101600.81;1783730;78;21308;-69
2021/10/29 00:13:37;;;;;;;24.00;19.70;;;;;;;14.85;62.55;101598.99;1755568;79;21335;-69
2021/10/29 00:16:04;;;;;;;26.97;21.17;;;;;;;14.85;62.49;101600.34;1756922;80;21286;-69
2021/10/29 00:18:31;;;;;;;28.77;22.47;;;;;;;14.85;62.43;101592.27;1749667;80;21896;-68
2021/10/29 00:20:58;;;;;;;26.67;21.23;;;;;;;14.84;62.46;101590.63;1751453;80;21759;-69
2021/10/29 00:23:25;;;;;;;26.47;20.97;;;;;;;14.83;62.47;101589.83;1771100;79;21272;-69
2021/10/29 00:25:51;;;;;;;26.10;20.73;;;;;;;14.83;62.51;101594.39;1774744;79;21275;-69
2021/10/29 00:28:18;;;;;;;28.97;21.63;;;;;;;14.81;62.54;101593.33;1746486;80;21601;-69
2021/10/29 00:30:44;;;;;;;27.73;20.87;;;;;;;14.80;62.62;101586.84;1770009;79;21177;-70
2021/10/29 00:33:11;;;;;;;26.20;19.77;;;;;;;14.80;62.65;101584.16;1749674;80;21463;-69
2021/10/29 00:35:38;;;;;;;26.67;20.93;;;;;;;14.81;62.67;101588.45;1753846;80;21465;-69
2021/10/29 00:38:05;;;;;;;26.17;20.77;;;;;;;14.74;62.77;101586.83;1743147;80;21297;-70
2021/10/29 00:40:34;;;;;;;26.00;20.87;;;;;;;14.71;62.87;101582.51;1738247;80;21240;-69
2021/10/29 00:43:01;;;;;;;27.90;21.20;;;;;;;14.69;62.96;101588.12;1738545;80;21377;-72
2021/10/29 00:45:30;;;;;;;30.57;22.83;;;;;;;14.67;63.05;101587.56;1736911;80;21248;-70
2021/10/29 00:47:56;;;;;;;28.80;24.13;;;;;;;14.62;63.18;101580.83;1765989;79;21222;-70
2021/10/29 00:50:23;;;;;;;27.30;21.77;;;;;;;14.55;63.32;101581.59;1755743;78;21331;-70
2021/10/29 00:52:50;;;;;;;28.43;22.17;;;;;;;14.54;63.38;101590.70;1786492;77;21144;-69
2021/10/29 00:55:16;;;;;;;26.00;21.93;;;;;;;14.49;63.52;101589.31;1783049;78;21349;-70
2021/10/29 00:57:43;;;;;;;26.53;19.40;;;;;;;14.44;63.66;101590.06;1788399;79;22355;-70
2021/10/29 01:00:12;;;;;;;27.80;21.97;;;;;;;14.41;63.75;101600.52;1785944;79;21712;-70
2021/10/29 01:02:39;;;;;;;28.53;22.43;;;;;;;14.31;64.06;101597.22;1772132;79;21379;-68
2021/10/29 01:05:07;;;;;;;27.20;20.97;;;;;;;14.21;64.35;101596.59;1751295;79;21238;-68
2021/10/29 01:07:35;;;;;;;28.23;23.30;;;;;;;14.16;64.51;101592.54;1746745;80;21836;-67
2021/10/29 01:10:04;;;;;;;29.80;22.77;;;;;;;14.18;64.54;101591.76;1748568;80;23750;-70
2021/10/29 01:12:31;;;;;;;29.40;23.10;;;;;;;14.20;64.54;101586.92;1772043;78;21265;-70
2021/10/29 01:15:00;;;;;;;29.03;21.97;;;;;;;14.23;64.51;101591.79;1761483;80;21408;-71
2021/10/29 01:17:27;;;;;;;28.37;22.50;;;;;;;14.25;64.55;101595.58;1786107;77;21556;-71
2021/10/29 01:19:56;;;;;;;30.33;22.07;;;;;;;14.24;64.57;101592.05;1774367;78;21892;-72
2021/10/29 01:22:23;;;;;;;27.97;21.70;;;;;;;14.24;64.62;101590.71;1790687;78;21196;-72
2021/10/29 01:24:52;;;;;;;27.70;22.30;;;;;;;14.24;64.60;101595.28;1780747;77;21271;-71
2021/10/29 01:27:19;;;;;;;27.93;22.33;;;;;;;14.17;64.56;101593.34;1782668;78;21288;-70
2021/10/29 01:29:46;;;;;;;24.13;20.27;;;;;;;14.09;64.63;101594.62;1780036;78;21359;-71
2021/10/29 01:32:13;;;;;;;25.00;20.40;;;;;;;14.04;64.78;101588.66;1789277;77;21256;-71
2021/10/29 01:34:41;;;;;;;27.87;21.87;;;;;;;14.02;64.92;101590.00;1781787;78;21098;-70
2021/10/29 01:37:10;;;;;;;27.40;21.33;;;;;;;13.95;65.15;101597.42;1781964;78;21265;-72
2021/10/29 01:39:38;;;;;;;26.40;20.40;;;;;;;13.89;65.38;101591.75;1757111;80;21259;-70
2021/10/29 01:42:05;;;;;;;24.63;18.50;;;;;;;13.82;65.66;101590.61;1716521;81;21351;-71
2021/10/29 01:44:34;;;;;;;26.80;20.87;;;;;;;13.73;65.88;101597.49;1716446;81;22198;-70
2021/10/29 01:47:01;;;;;;;26.50;20.93;;;;;;;13.67;66.02;101591.78;1770943;79;21297;-70
2021/10/29 01:49:28;;;;;;;27.43;21.50;;;;;;;13.63;66.16;101599.53;1755659;79;21538;-71
2021/10/29 01:51:55;;;;;;;25.43;20.60;;;;;;;13.62;66.22;101595.20;1757157;80;21333;-71
2021/10/29 01:54:22;;;;;;;24.63;20.30;;;;;;;13.59;66.22;101597.08;1767834;79;21149;-71
2021/10/29 01:56:49;;;;;;;24.80;20.77;;;;;;;13.58;66.06;101595.44;1780804;79;21153;-72
2021/10/29 01:59:16;;;;;;;23.97;19.27;;;;;;;13.53;65.83;101597.55;1780087;78;21276;-71
2021/10/29 02:01:43;;;;;;;26.50;20.87;;;;;;;13.46;65.60;101592.06;1779777;78;21288;-71
2021/10/29 02:04:10;;;;;;;25.67;19.30;;;;;;;13.36;65.50;101594.12;1784492;78;21236;-69
2021/10/29 02:06:37;;;;;;;24.60;19.90;;;;;;;13.26;65.40;101599.34;1781100;78;21257;-69
2021/10/29 02:09:05;;;;;;;23.63;19.30;;;;;;;13.15;65.38;101598.38;1783126;78;21249;-69
2021/10/29 02:11:31;;;;;;;26.33;20.70;;;;;;;13.05;65.50;101602.27;1785810;77;21245;-69
2021/10/29 02:13:58;;;;;;;24.18;19.37;;;;;;;12.96;65.71;101597.04;1787479;78;21774;-69
2021/10/29 02:16:24;;;;;;;24.55;19.82;;;;;;;12.88;65.83;101607.67;1779891;78;21539;-70
2021/10/29 02:18:51;;;;;;;25.60;20.12;;;;;;;12.80;66.04;101614.27;1780744;78;21026;-70
2021/10/29 02:21:17;;;;;;;25.88;20.25;;;;;;;12.73;66.32;101616.28;1773100;78;21112;-70
2021/10/29 02:23:44;;;;;;;25.87;20.17;;;;;;;12.66;66.44;101615.64;1783984;78;21564;-70
2021/10/29 02:26:10;;;;;;;28.12;21.68;;;;;;;12.59;66.59;101619.02;1780180;78;21048;-69
2021/10/29 02:28:38;;;;;;;26.27;21.68;;;;;;;12.51;66.84;101621.59;1747394;80;21168;-69
2021/10/29 02:31:04;;;;;;;27.00;21.70;;;;;;;12.46;67.17;101624.70;1788985;79;21585;-69
2021/10/29 02:33:31;;;;;;;28.23;20.77;;;;;;;12.41;67.34;101632.15;1788363;77;21128;-70
2021/10/29 02:35:58;;;;;;;26.70;21.48;;;;;;;12.35;67.43;101627.22;1787111;78;21615;-70
2021/10/29 02:38:26;;;;;;;27.00;21.27;;;;;;;12.30;67.56;101623.11;1778672;78;21079;-70
2021/10/29 02:40:53;;;;;;;27.25;21.25;;;;;;;12.25;67.50;101628.39;1773908;77;21613;-70
2021/10/29 02:43:19;;;;;;;26.52;20.95;;;;;;;12.16;67.35;101631.17;1736313;81;21082;-69
2021/10/29 02:45:46;;;;;;;25.35;20.85;;;;;;;12.09;67.19;101630.52;1737746;81;21634;-69
2021/10/29 02:48:13;;;;;;;25.97;19.92;;;;;;;11.99;67.10;101631.14;1718612;81;21095;-70
2021/10/29 02:50:40;;;;;;;25.23;19.52;;;;;;;11.91;67.00;101626.16;1723099;81;21075;-70
2021/10/29 02:53:08;;;;;;;26.30;20.10;;;;;;;11.84;66.95;101631.66;1730592;80;21118;-70
2021/10/29 02:55:35;;;;;;;25.25;19.67;;;;;;;11.78;66.90;101639.30;1717935;81;21461;-70
2021/10/29 02:58:02;;;;;;;25.02;21.15;;;;;;;11.70;66.94;101638.31;1723911;81;21534;-70
2021/10/29 03:00:29;;;;;;;25.12;20.27;;;;;;;11.62;67.00;101639.52;1715326;80;21094;-68
2021/10/29 03:02:55;;;;;;;27.32;21.57;;;;;;;11.57;67.13;101644.75;1716390;81;21051;-69
2021/10/29 03:05:22;;;;;;;27.98;22.15;;;;;;;11.50;67.20;101638.20;1724284;80;21184;-69
2021/10/29 03:07:49;;;;;;;25.68;21.23;;;;;;;11.47;67.39;101653.38;1711886;81;21074;-70
2021/10/29 03:10:16;;;;;;;29.50;21.93;;;;;;;11.45;67.51;101655.99;1775658;79;21122;-70
2021/10/29 03:12:44;;;;;;;28.38;22.00;;;;;;;11.44;67.65;101657.05;1774483;79;21962;-70
2021/10/29 03:15:11;;;;;;;27.87;21.35;;;;;;;11.41;67.78;101659.66;1773751;79;20954;-70
2021/10/29 03:17:38;;;;;;;26.77;20.92;;;;;;;11.39;67.79;101656.44;1775963;79;21166;-70
2021/10/29 03:20:08;;;;;;;26.85;21.55;;;;;;;11.33;67.86;101656.03;1773777;79;21065;-71
2021/10/29 03:22:36;;;;;;;27.80;21.27;;;;;;;11.32;67.92;101658.92;1763428;79;21064;-70
2021/10/29 03:25:05;;;;;;;24.72;19.92;;;;;;;11.30;67.93;101652.48;1749036;80;21063;-71
2021/10/29 03:27:31;;;;;;;25.45;19.45;;;;;;;11.27;67.92;101648.41;1779149;78;21547;-70
2021/10/29 03:29:58;;;;;;;22.30;18.67;;;;;;;11.23;67.88;101648.59;1783768;77;21066;-70
2021/10/29 03:32:28;;;;;;;22.65;18.17;;;;;;;11.18;67.82;101647.66;1775864;78;21605;-69
2021/10/29 03:34:54;;;;;;;23.67;19.12;;;;;;;11.13;67.75;101650.24;1781056;78;21172;-69
2021/10/29 03:40:11;;;;;;;20.50;16.90;;;;;;;11.02;67.80;101645.17;1781437;78;28730;-70
2021/10/29 03:42:35;;;;;;;20.37;16.70;;;;;;;10.95;67.77;101650.63;1780844;77;21089;-70
2021/10/29 03:45:06;;;;;;;20.45;16.75;;;;;;;10.90;67.71;101658.55;1780913;78;21763;-70
2021/10/29 03:47:38;;;;;;;20.95;17.00;;;;;;;10.82;67.63;101654.87;1779674;78;21705;-70
2021/10/29 03:52:52;;;;;;;20.80;17.35;;;;;;;10.68;67.71;101658.81;1793781;78;21486;-70
2021/10/29 03:55:16;;;;;;;22.62;16.82;;;;;;;10.60;67.90;101657.83;1790694;78;20999;-69
2021/10/29 03:57:45;;;;;;;20.65;16.80;;;;;;;10.54;67.96;101668.38;1790081;78;20944;-69
2021/10/29 04:00:13;;;;;;;19.32;16.17;;;;;;;10.49;67.97;101659.41;1798741;77;21115;-69
2021/10/29 04:02:39;;;;;;;19.95;16.48;;;;;;;10.43;67.94;101664.33;1793577;78;21089;-69
2021/10/29 04:05:08;;;;;;;19.67;15.93;;;;;;;10.37;68.02;101662.08;1789494;78;20972;-69
2021/10/29 04:07:35;;;;;;;20.60;16.60;;;;;;;10.33;68.15;101666.22;1782817;78;21055;-69
2021/10/29 04:10:03;;;;;;;21.95;16.55;;;;;;;10.27;68.17;101658.62;1790912;78;21027;-69
2021/10/29 04:12:32;;;;;;;21.48;15.63;;;;;;;10.23;68.25;101664.59;1801347;78;21014;-69
2021/10/29 04:14:59;;;;;;;19.12;15.72;;;;;;;10.20;68.30;101662.38;1799631;78;21022;-69
2021/10/29 04:17:26;;;;;;;19.55;15.35;;;;;;;10.15;68.26;101663.59;1790993;77;21090;-70
2021/10/29 04:19:52;;;;;;;21.70;16.95;;;;;;;10.10;68.28;101670.92;1793978;78;21596;-70
2021/10/29 04:22:19;;;;;;;18.52;14.80;;;;;;;10.05;68.28;101672.14;1775326;78;21045;-69
2021/10/29 04:24:46;;;;;;;19.65;15.55;;;;;;;9.99;68.33;101673.84;1758893;80;21551;-71
2021/10/29 04:27:20;;;;;;;18.23;14.85;;;;;;;9.95;68.33;101675.34;1731558;81;21016;-70
2021/10/29 04:29:43;;;;;;;18.17;14.75;;;;;;;9.83;68.51;101676.61;1739656;81;21554;-71
2021/10/29 04:32:10;;;;;;;20.17;15.13;;;;;;;9.87;68.41;101680.98;1757237;80;20968;-70
2021/10/29 04:34:37;;;;;;;19.42;15.55;;;;;;;9.80;68.48;101683.73;1792360;78;21051;-69
2021/10/29 04:37:03;;;;;;;19.27;15.55;;;;;;;9.75;68.55;101686.80;1782108;78;21119;-69
2021/10/29 04:39:30;;;;;;;19.20;15.35;;;;;;;9.70;68.61;101679.97;1789337;78;21069;-69
2021/10/29 04:41:58;;;;;;;20.05;15.55;;;;;;;9.70;68.56;101690.64;1799514;77;20995;-70
2021/10/29 04:44:26;;;;;;;19.25;14.28;;;;;;;9.66;68.49;101684.13;1764375;78;21138;-70
2021/10/29 04:46:53;;;;;;;21.55;16.37;;;;;;;9.63;68.51;101701.38;1772825;78;21624;-69
2021/10/29 04:49:20;;;;;;;19.17;15.63;;;;;;;9.56;68.50;101705.45;1783472;78;21505;-69
2021/10/29 04:51:48;;;;;;;17.02;14.35;;;;;;;9.55;68.46;101705.17;1786366;78;21124;-71
2021/10/29 04:54:15;;;;;;;15.70;12.98;;;;;;;9.50;68.58;101707.67;1788355;77;21080;-73
2021/10/29 04:56:43;;;;;;;16.23;13.72;;;;;;;9.49;68.71;101714.58;1775100;78;21101;-71
2021/10/29 04:59:13;;;;;;;18.40;15.03;;;;;;;9.43;68.77;101712.27;1792825;78;21580;-69
2021/10/29 05:01:39;;;;;;;18.40;14.58;;;;;;;9.40;68.76;101716.70;1780249;78;21099;-70
2021/10/29 05:04:06;;;;;;;18.57;13.83;;;;;;;9.39;68.79;101719.89;1743830;80;21101;-70
2021/10/29 05:06:33;;;;;;;18.23;13.98;;;;;;;9.36;68.81;101723.00;1788528;79;21057;-70
2021/10/29 05:08:59;;;;;;;15.23;12.15;;;;;;;9.32;68.84;101719.67;1781547;79;21005;-70
2021/10/29 05:11:26;;;;;;;18.62;14.53;;;;;;;9.29;68.92;101726.25;1792566;78;21133;-70
2021/10/29 05:13:53;;;;;;;18.12;13.53;;;;;;;9.25;68.98;101720.25;1779665;79;21474;-69
2021/10/29 05:16:20;;;;;;;18.82;14.70;;;;;;;9.26;69.02;101718.69;1792235;79;21040;-69
2021/10/29 05:18:47;;;;;;;17.87;14.83;;;;;;;9.24;69.12;101716.75;1787839;79;21027;-71
2021/10/29 05:21:14;;;;;;;19.25;16.10;;;;;;;9.27;69.15;101719.50;1764558;79;21053;-69
2021/10/29 05:23:41;;;;;;;20.75;15.90;;;;;;;9.30;69.21;101723.06;1757883;80;21042;-70
2021/10/29 05:26:09;;;;;;;18.95;15.70;;;;;;;9.35;69.37;101721.37;1773789;79;21991;-69
2021/10/29 05:28:36;;;;;;;22.40;17.42;;;;;;;9.42;69.52;101731.98;1781440;79;21463;-69
2021/10/29 05:31:02;;;;;;;21.05;17.05;;;;;;;9.49;69.69;101723.91;1782714;79;21098;-69
2021/10/29 05:33:31;;;;;;;20.92;16.55;;;;;;;9.57;69.87;101728.41;1787090;79;21071;-69
2021/10/29 05:35:57;;;;;;;19.95;16.45;;;;;;;9.65;70.01;101727.85;1768860;79;21046;-71
2021/10/29 05:38:24;;;;;;;22.62;19.12;;;;;;;9.73;70.21;101732.36;1778937;79;21141;-70
2021/10/29 05:40:51;;;;;;;22.45;18.10;;;;;;;9.82;70.44;101726.22;1770880;79;21540;-70
2021/10/29 05:43:18;;;;;;;23.27;18.80;;;;;;;9.93;70.62;101733.98;1773336;79;20960;-70
2021/10/29 05:45:44;;;;;;;23.30;19.07;;;;;;;10.01;70.81;101737.70;1766004;79;21129;-71
2021/10/29 05:48:11;;;;;;;23.73;19.02;;;;;;;10.09;70.94;101740.86;1784561;79;21038;-71
2021/10/29 05:50:46;;;;;;;22.98;19.25;;;;;;;10.21;71.04;101742.79;1797140;79;21139;-70
2021/10/29 05:53:08;;;;;;;24.70;19.87;;;;;;;10.30;71.13;101742.28;1784058;79;21006;-69
2021/10/29 05:55:35;;;;;;;23.38;19.10;;;;;;;10.40;71.22;101747.09;1779577;79;21027;-70
2021/10/29 05:58:02;;;;;;;27.07;21.40;;;;;;;10.52;71.32;101745.77;1774382;79;21727;-69
2021/10/29 06:00:31;;;;;;;26.97;21.50;;;;;;;10.64;71.45;101751.17;1774213;79;21023;-70
2021/10/29 06:03:05;;;;;;;19.48;15.93;;;;;;;10.75;71.52;101743.70;1774890;79;21137;-69
2021/10/29 06:05:33;;;;;;;61.88;22.67;;;;;;;10.85;71.40;101752.49;1774016;79;21488;-69
2021/10/29 06:07:59;;;;;;;42.53;22.10;;;;;;;10.86;71.18;101747.42;1771937;79;21043;-70
2021/10/29 06:10:26;;;;;;;36.45;22.62;;;;;;;10.88;71.06;101746.69;1751634;79;21091;-70
2021/10/29 06:12:54;;;;;;;33.53;21.23;;;;;;;10.93;70.96;101742.82;1742533;80;21138;-69
2021/10/29 06:15:20;;;;;;;27.80;21.80;;;;;;;11.04;70.95;101748.16;1778971;78;21108;-69
2021/10/29 06:17:47;;;;;;;29.90;21.40;;;;;;;11.16;70.88;101750.86;1776841;78;21082;-69
2021/10/29 06:20:16;;;;;;;25.70;21.05;;;;;;;11.29;70.83;101749.83;1783366;78;21424;-69
2021/10/29 06:22:48;;;;;;;28.98;22.17;;;;;;;11.41;70.87;101759.98;1775680;78;21102;-69
2021/10/29 06:25:17;;;;;;;28.67;21.50;;;;;;;11.53;70.90;101763.20;1735734;79;21113;-70
2021/10/29 06:30:09;;;;;;;38.02;28.67;;;;;;;11.63;70.57;101762.08;1691113;82;21040;-70
2021/10/29 06:32:37;;;;;;;36.45;29.30;;;;;;;11.72;70.54;101760.16;1723703;82;21118;-69
2021/10/29 06:35:05;;;;;;;35.05;27.32;;;;;;;11.84;70.44;101766.00;1705581;82;21590;-69
2021/10/29 06:37:31;;;;;;;33.28;27.90;;;;;;;11.94;70.48;101757.71;1707105;81;21558;-69
2021/10/29 06:39:58;;;;;;;34.35;27.80;;;;;;;12.07;70.53;101765.98;1710950;81;21157;-69
2021/10/29 06:42:29;;;;;;;38.25;30.62;;;;;;;12.18;70.60;101761.12;1707446;80;21119;-70
2021/10/29 06:45:20;;;;;;;33.67;26.17;;;;;;;12.33;70.59;101765.14;1704461;82;21018;-69
2021/10/29 06:47:42;;;;;;;31.52;26.87;;;;;;;12.49;70.46;101768.40;1748617;79;20999;-69
2021/10/29 07:00:28;;;;;;;25.82;22.65;;;;;;;13.13;69.59;101778.36;1775959;79;21094;-69
2021/10/29 07:03:25;;;;;;;26.33;23.13;;;;;;;13.24;69.53;101780.70;1766500;79;21588;-71
2021/10/29 07:40:42;;;;;;;18.00;14.90;;;;;;;15.21;66.20;101776.28;1776287;78;21331;-69
2021/10/29 07:43:08;;;;;;;17.17;14.70;;;;;;;15.30;65.95;101784.16;1770305;78;21284;-70
2021/10/29 07:45:34;;;;;;;14.17;12.37;;;;;;;15.44;65.83;101789.36;1770190;78;21309;-69
2021/10/29 07:48:01;;;;;;;14.00;11.53;;;;;;;15.60;65.54;101785.42;1774578;78;21786;-70
2021/10/29 07:50:28;;;;;;;12.47;10.40;;;;;;;15.76;65.20;101780.94;1774067;77;21269;-69
2021/10/29 07:52:57;;;;;;;13.07;11.40;;;;;;;15.88;64.61;101780.20;1782827;78;21318;-69
2021/10/29 07:55:29;;;;;;;11.93;10.13;;;;;;;15.97;64.38;101784.56;1778132;78;21334;-70
2021/10/29 07:58:02;;;;;;;11.33;10.13;;;;;;;16.26;63.90;101785.75;1769628;78;21515;-69
2021/10/29 08:00:29;;;;;;;13.20;9.73;;;;;;;16.26;63.90;101785.75;1773317;78;22193;-70
2021/10/29 08:02:57;;;;;;;13.13;11.13;;;;;;;16.39;63.48;101785.25;1713152;82;21774;-72
2021/10/29 08:05:24;;;;;;;12.90;10.70;;;;;;;16.59;62.96;101789.07;1716260;81;21621;-70
2021/10/29 08:07:51;;;;;;;14.27;11.53;;;;;;;16.69;62.64;101789.63;1740461;80;21603;-71
2021/10/29 08:10:18;;;;;;;12.13;10.60;;;;;;;16.69;62.64;101789.63;1771963;78;21497;-70
2021/10/29 08:12:45;;;;;;;12.07;10.53;;;;;;;16.77;62.23;101789.11;1773159;78;21608;-70
2021/10/29 08:15:12;;;;;;;12.47;10.90;;;;;;;16.86;61.86;101790.20;1777297;78;21968;-70
2021/10/29 08:17:41;;;;;;;13.77;11.73;;;;;;;16.97;61.46;101793.17;1767499;78;21786;-70
2021/10/29 08:20:11;;;;;;;14.57;12.10;;;;;;;17.04;61.03;101794.25;1759237;80;21735;-71
2021/10/29 08:22:38;;;;;;;13.90;11.47;;;;;;;17.10;60.84;101799.92;1774946;78;21706;-70
2021/10/29 08:25:06;;;;;;;15.30;11.43;;;;;;;17.15;60.69;101801.83;1761117;80;21751;-71
2021/10/29 08:27:35;;;;;;;17.40;14.33;;;;;;;17.17;59.87;101805.05;1782771;78;21633;-69
2021/10/29 08:30:04;;;;;;;17.83;12.73;;;;;;;17.15;59.64;101802.63;1769769;78;21840;-69
2021/10/29 08:32:32;;;;;;;17.52;13.35;;;;;;;17.20;59.54;101803.96;1776755;79;21720;-70
2021/10/29 08:35:01;;;;;;;17.60;12.87;;;;;;;17.29;59.47;101800.99;1770014;79;21764;-69
2021/10/29 08:37:31;;;;;;;14.40;12.43;;;;;;;17.39;59.37;101805.58;1789593;78;21799;-69
2021/10/29 08:39:56;;;;;;;16.77;12.67;;;;;;;17.49;59.14;101804.20;1780099;78;21798;-70
2021/10/29 08:42:23;;;;;;;18.07;12.77;;;;;;;17.57;58.85;101809.07;1786837;78;21784;-70
2021/10/29 08:44:50;;;;;;;16.87;12.03;;;;;;;17.63;58.64;101806.34;1792646;78;21775;-70
2021/10/29 08:47:22;;;;;;;16.53;13.13;;;;;;;17.71;58.48;101809.84;1797225;78;22737;-69
2021/10/29 08:49:49;;;;;;;16.75;13.65;;;;;;;17.75;58.24;101814.42;1788746;78;21700;-70
2021/10/29 08:52:21;;;;;;;15.93;12.67;;;;;;;17.84;58.09;101810.66;1789943;78;21074;-70
2021/10/29 08:54:48;;;;;;;18.37;13.43;;;;;;;17.93;57.56;101807.66;1793973;77;21622;-70
2021/10/29 08:57:16;;;;;;;17.37;13.00;;;;;;;17.96;57.36;101807.08;1786642;78;21712;-70
2021/10/29 08:59:48;;;;;;;18.13;13.00;;;;;;;18.02;57.05;101805.17;1792250;78;21795;-70
2021/10/29 09:02:24;;;;;;;18.25;13.30;;;;;;;18.04;56.63;101802.47;1796855;78;21026;-70
2021/10/29 09:04:55;;;;;;;14.58;12.50;;;;;;;18.06;56.39;101800.82;1794239;78;21485;-69
2021/10/29 09:10:43;;;;;;;17.83;13.77;;;;;;;18.19;56.25;101797.52;1756071;80;21508;-68
2021/10/29 09:32:57;;;;;;;19.87;13.72;;;;;;;18.81;54.28;101798.00;1764025;79;21022;-68
2021/10/29 09:35:24;;;;;;;17.33;13.17;;;;;;;18.93;54.00;101786.82;1772401;79;21034;-70
2021/10/29 09:38:12;;;;;;;16.37;12.47;;;;;;;19.05;53.76;101790.50;1766844;80;21097;-70
2021/10/29 09:41:01;;;;;;;15.53;11.60;;;;;;;19.15;53.18;101786.34;1762986;80;21454;-69
2021/10/29 09:43:33;;;;;;;14.80;11.90;;;;;;;19.11;52.34;101785.30;1784658;78;20995;-70
2021/10/29 09:46:02;;;;;;;14.93;10.87;;;;;;;18.95;52.24;101784.09;1743207;80;21042;-70
2021/10/29 09:48:45;;;;;;;14.20;11.90;;;;;;;18.96;52.48;101789.77;1786348;79;20980;-70
2021/10/29 09:51:16;;;;;;;13.47;11.43;;;;;;;19.00;52.47;101783.23;1765791;79;21568;-69
2021/10/29 09:58:53;;;;;;;16.90;12.10;;;;;;;19.16;52.08;101787.43;1782944;78;21060;-71
2021/10/29 10:01:22;;;;;;;14.30;10.80;;;;;;;19.27;51.83;101781.36;1778635;78;21576;-70
2021/10/29 10:03:50;;;;;;;13.73;10.90;;;;;;;19.38;51.54;101782.06;1786039;78;21006;-70
2021/10/29 10:06:25;;;;;;;12.27;10.53;;;;;;;19.44;51.25;101774.95;1779909;78;22168;-70
2021/10/29 10:08:53;;;;;;;12.33;10.37;;;;;;;19.48;51.10;101770.31;1781854;78;21031;-70
2021/10/29 10:11:24;;;;;;;12.67;10.67;;;;;;;19.53;50.31;101769.72;1780030;78;22164;-70
2021/10/29 10:13:54;;;;;;;16.30;12.43;;;;;;;19.47;50.52;101774.12;1753200;78;21058;-70
2021/10/29 10:16:22;;;;;;;14.60;10.90;;;;;;;19.52;50.11;101774.89;1776149;78;21098;-72
2021/10/29 10:18:49;;;;;;;12.33;10.07;;;;;;;19.50;50.16;101774.91;1772010;78;21120;-73
2021/10/29 10:21:20;;;;;;;14.23;11.13;;;;;;;19.56;50.18;101778.64;1780679;77;21553;-72
2021/10/29 10:23:51;;;;;;;14.40;11.47;;;;;;;19.61;50.25;101775.05;1754682;81;21615;-70
2021/10/29 10:29:18;;;;;;;12.63;11.10;;;;;;;19.81;49.61;101774.03;1776668;78;21494;-71
2021/10/29 10:45:52;;;;;;;11.70;8.98;;;;;;;19.94;48.32;101772.01;1787159;78;21132;-68
2021/10/29 10:48:26;;;;;;;11.00;9.77;;;;;;;20.01;48.26;101772.45;1755647;78;21565;-70
2021/10/29 10:50:58;;;;;;;13.03;9.97;;;;;;;20.06;48.09;101775.08;1778565;78;20978;-71
2021/10/29 10:53:29;;;;;;;9.30;8.15;;;;;;;20.06;47.88;101768.86;1773659;80;21455;-70
2021/10/29 10:56:22;;;;;;;11.17;9.03;;;;;;;20.03;47.81;101774.86;1780764;79;21026;-70
2021/10/29 10:59:04;;;;;;;10.23;8.53;;;;;;;19.92;47.71;101771.48;1772922;79;21164;-71
2021/10/29 11:04:32;;;;;;;10.10;8.00;;;;;;;19.81;47.25;101768.09;1750701;81;21166;-69
2021/10/29 11:07:05;;;;;;;9.67;7.40;;;;;;;19.77;47.44;101768.39;1698517;82;21001;-70
2021/10/29 11:10:02;;;;;;;8.80;7.57;;;;;;;19.77;47.36;101765.68;1759468;78;21611;-70
2021/10/29 11:12:48;;;;;;;8.87;7.13;;;;;;;19.86;47.54;101769.92;1768357;80;21229;-70
2021/10/29 11:15:26;;;;;;;10.07;6.60;;;;;;;20.00;46.62;101765.95;1760122;80;21035;-70
2021/10/29 11:18:00;;;;;;;10.27;5.47;;;;;;;20.08;46.46;101765.31;1711411;82;21075;-71
2021/10/29 11:20:43;;;;;;;7.03;4.53;;;;;;;20.19;45.97;101761.36;1775508;78;21592;-71
2021/10/29 11:23:20;;;;;;;5.17;3.00;;;;;;;20.29;44.89;101761.21;1683734;84;21637;-70
2021/10/29 11:26:03;;;;;;;4.03;2.57;;;;;;;20.26;44.00;101760.44;1768638;78;21686;-70
2021/10/29 11:28:55;;;;;;;4.93;2.83;;;;;;;20.30;43.22;101764.72;1771329;79;21042;-70
2021/10/29 11:31:25;;;;;;;5.30;2.87;;;;;;;20.36;42.88;101758.93;1773756;79;21142;-70
2021/10/29 11:33:55;;;;;;;4.15;2.92;;;;;;;20.42;42.83;101758.87;1778901;78;21042;-70
2021/10/29 11:36:25;;;;;;;4.70;3.33;;;;;;;20.47;42.69;101761.52;1717309;82;21052;-73
2021/10/29 11:38:53;;;;;;;4.57;3.63;;;;;;;20.50;42.68;101756.83;1719688;81;21071;-69
2021/10/29 11:41:24;;;;;;;5.97;3.43;;;;;;;20.54;43.00;101762.79;1702137;82;21070;-71
2021/10/29 11:43:51;;;;;;;6.87;4.37;;;;;;;20.55;43.14;101759.52;1740465;80;21454;-70
2021/10/29 11:46:22;;;;;;;6.83;4.50;;;;;;;20.57;43.41;101758.69;1775551;78;21137;-69
2021/10/29 11:48:58;;;;;;;9.03;4.78;;;;;;;20.64;43.28;101761.02;1747559;80;21498;-71
2021/10/29 11:51:26;;;;;;;6.70;5.10;;;;;;;20.71;43.34;101763.61;1777407;79;21196;-69
2021/10/29 11:54:00;;;;;;;7.07;5.63;;;;;;;20.78;43.33;101765.95;1713781;82;21019;-71
2021/10/29 12:01:39;;;;;;;8.97;6.53;;;;;;;20.80;42.94;101760.48;1754448;80;21058;-70
2021/10/29 12:09:35;;;;;;;8.57;6.17;;;;;;;20.69;43.17;101754.94;1711359;82;21070;-71
2021/10/29 12:12:10;;;;;;;8.00;6.23;;;;;;;20.66;43.30;101750.66;1734745;81;21679;-70
2021/10/29 12:14:37;;;;;;;8.33;6.17;;;;;;;20.60;43.27;101752.11;1753431;80;21038;-70
2021/10/29 12:17:12;;;;;;;7.90;6.33;;;;;;;20.51;43.18;101755.78;1774604;78;21651;-70
2021/10/29 12:19:40;;;;;;;8.53;6.17;;;;;;;20.41;43.35;101750.48;1774213;78;21077;-70
2021/10/29 12:24:47;;;;;;;9.90;6.37;;;;;;;20.20;43.83;101754.02;1788382;77;21010;-70
2021/10/29 12:27:28;;;;;;;7.10;5.70;;;;;;;20.19;44.28;101746.44;1787877;78;20955;-70
2021/10/29 12:30:21;;;;;;;8.47;6.27;;;;;;;20.24;43.77;101745.58;1792670;79;21138;-71
2021/10/29 12:32:59;;;;;;;12.83;5.87;;;;;;;20.23;43.73;101743.94;1784382;78;21075;-70
2021/10/29 12:38:39;;;;;;;7.10;5.30;;;;;;;20.20;43.24;101743.97;1713234;81;21072;-70
2021/10/29 13:01:39;;;;;;;6.80;5.77;;;;;;;20.07;42.26;101733.32;1706907;82;21060;-69
2021/10/29 13:04:20;;;;;;;6.60;5.30;;;;;;;20.02;42.22;101725.24;1748878;80;21018;-69
2021/10/29 13:06:54;;;;;;;7.03;5.10;;;;;;;20.00;42.17;101727.98;1732221;81;21526;-70
2021/10/29 13:09:24;;;;;;;7.43;5.13;;;;;;;19.99;42.34;101725.02;1740141;80;21024;-69
2021/10/29 13:11:58;;;;;;;7.97;5.27;;;;;;;19.97;42.33;101723.14;1723539;81;21399;-70
2021/10/29 13:14:36;;;;;;;9.30;5.57;;;;;;;19.94;42.49;101727.78;1697914;82;21011;-68
2021/10/29 13:17:05;;;;;;;5.87;3.87;;;;;;;19.91;42.70;101728.64;1755682;80;21072;-69
2021/10/29 13:24:55;;;;;;;8.77;5.90;;;;;;;19.79;42.77;101724.19;1665876;81;21518;-70
2021/10/29 13:37:57;;;;;;;8.30;5.23;;;;;;;19.59;43.45;101729.28;1755744;80;21097;-70
2021/10/29 13:51:32;;;;;;;9.40;5.67;;;;;;;19.30;44.09;101733.94;1746095;80;21753;-69
2021/10/29 13:54:08;;;;;;;7.07;5.30;;;;;;;19.23;44.16;101731.57;1745321;79;21469;-69
2021/10/29 14:02:22;;;;;;;9.47;6.27;;;;;;;19.00;44.80;101733.70;1782092;79;21065;-69
2021/10/29 14:29:38;;;;;;;13.17;8.70;;;;;;;17.83;46.57;101727.94;1788375;78;21051;-70
2021/10/29 14:32:03;;;;;;;11.07;9.00;;;;;;;17.67;46.75;101722.30;1777139;78;21180;-70
2021/10/29 14:34:40;;;;;;;16.20;9.20;;;;;;;17.53;46.94;101723.43;1705747;81;21758;-69
2021/10/29 14:39:55;;;;;;;13.73;9.83;;;;;;;17.25;47.48;101727.56;1756277;80;22244;-71